Time;durP1;ratioP1;P1;durP2;ratioP2;P2;SDS_P1;SDS_P2;PMS_P1;PMS_P2;Temp;Humidity;BMP_temperature;BMP_pressure;BME280_temperature;BME280_humidity;BME280_pressure;Samples;Min_cycle;Max_cycle;Signal;HPM_P1;HPM_P2
2021/03/08 00:01:12;;;;;;;15.30;8.73;;;21.60;49.60;;;;;;5075264;28;20028;-63
2021/03/08 00:03:38;;;;;;;14.10;9.45;;;21.60;49.60;;;;;;5093301;28;20031;-63
2021/03/08 00:06:04;;;;;;;12.60;8.60;;;21.50;49.60;;;;;;5093060;28;20027;-64
2021/03/08 00:08:30;;;;;;;16.60;9.43;;;21.60;49.60;;;;;;5073881;28;20028;-64
2021/03/08 00:10:56;;;;;;;10.88;7.68;;;21.50;49.50;;;;;;5093329;28;20058;-63
2021/03/08 00:13:22;;;;;;;12.18;8.57;;;21.50;49.50;;;;;;5093491;28;20032;-64
2021/03/08 00:15:48;;;;;;;13.55;8.60;;;21.50;49.60;;;;;;5092316;28;20047;-64
2021/03/08 00:18:14;;;;;;;10.73;7.93;;;21.50;49.60;;;;;;5073619;28;20074;-63
2021/03/08 00:20:40;;;;;;;10.27;7.45;;;21.50;49.60;;;;;;5074831;28;20048;-63
2021/03/08 00:23:06;;;;;;;11.38;8.48;;;21.50;49.60;;;;;;5092855;28;20032;-64
2021/03/08 00:25:33;;;;;;;12.48;8.25;;;21.50;49.60;;;;;;5074728;28;20085;-63
2021/03/08 00:28:00;;;;;;;11.70;8.15;;;21.50;49.60;;;;;;5075061;28;20051;-63
2021/03/08 00:30:27;;;;;;;10.75;8.05;;;21.50;49.50;;;;;;5092666;28;20416;-63
2021/03/08 00:32:53;;;;;;;12.60;9.25;;;21.40;49.50;;;;;;5093107;28;20063;-63
2021/03/08 00:35:19;;;;;;;16.90;8.38;;;21.40;49.40;;;;;;5093077;28;20441;-64
2021/03/08 00:37:45;;;;;;;14.07;7.60;;;21.50;49.50;;;;;;5093213;28;20028;-64
2021/03/08 00:40:17;;;;;;;16.55;8.82;;;21.40;49.50;;;;;;5093031;28;20052;-64
2021/03/08 00:42:43;;;;;;;12.50;6.90;;;21.40;49.40;;;;;;5090877;28;20038;-63
2021/03/08 00:45:12;;;;;;;13.95;7.60;;;21.40;49.40;;;;;;5073765;28;20482;-63
2021/03/08 00:47:38;;;;;;;12.52;7.47;;;21.40;49.20;;;;;;5092231;28;20031;-63
2021/03/08 00:50:06;;;;;;;10.93;6.88;;;21.40;49.30;;;;;;5091892;28;20020;-64
2021/03/08 00:52:33;;;;;;;14.15;7.07;;;21.40;49.10;;;;;;5092337;28;20028;-59
2021/03/08 00:54:59;;;;;;;10.52;7.18;;;21.40;49.10;;;;;;5092855;28;20035;-59
2021/03/08 00:57:25;;;;;;;11.85;6.63;;;21.30;49.10;;;;;;5074183;28;20032;-59
2021/03/08 00:59:52;;;;;;;15.93;7.38;;;21.30;49.10;;;;;;5074645;28;20053;-59
2021/03/08 01:02:18;;;;;;;10.55;6.22;;;21.30;49.20;;;;;;5074086;28;20105;-59
2021/03/08 01:04:47;;;;;;;12.18;6.72;;;21.30;49.20;;;;;;5074486;28;20024;-59
2021/03/08 01:07:14;;;;;;;10.25;6.10;;;21.30;49.10;;;;;;5074195;28;20039;-59
2021/03/08 01:09:43;;;;;;;12.52;6.30;;;21.30;49.20;;;;;;5074795;28;20028;-59
2021/03/08 01:12:10;;;;;;;12.77;6.00;;;21.30;49.10;;;;;;5074187;28;20039;-59
2021/03/08 01:14:39;;;;;;;14.50;6.40;;;21.20;49.10;;;;;;5074249;28;20081;-59
2021/03/08 01:17:05;;;;;;;10.80;6.95;;;21.30;49.10;;;;;;5092020;28;20429;-60
2021/03/08 01:19:31;;;;;;;12.75;6.50;;;21.30;49.10;;;;;;5092658;28;20085;-59
2021/03/08 01:21:58;;;;;;;11.40;6.30;;;21.20;49.00;;;;;;5092829;28;20036;-60
2021/03/08 01:24:24;;;;;;;8.73;5.40;;;21.20;49.00;;;;;;5092348;28;20421;-59
2021/03/08 01:26:50;;;;;;;11.77;6.15;;;21.20;49.00;;;;;;5092665;28;20028;-60
2021/03/08 01:29:16;;;;;;;12.82;6.43;;;21.20;48.90;;;;;;5092207;28;20441;-60
2021/03/08 01:31:42;;;;;;;9.43;5.35;;;21.20;48.90;;;;;;5092758;28;20032;-60
2021/03/08 01:34:08;;;;;;;13.95;5.80;;;21.20;48.80;;;;;;5092206;28;20089;-59
2021/03/08 01:36:34;;;;;;;9.90;5.15;;;21.20;48.80;;;;;;5077783;28;20131;-59
2021/03/08 01:39:00;;;;;;;10.93;5.30;;;21.20;48.70;;;;;;5095940;28;20034;-59
2021/03/08 01:41:26;;;;;;;10.63;5.20;;;21.10;48.70;;;;;;5095987;28;20031;-59
2021/03/08 01:43:52;;;;;;;11.30;5.50;;;21.10;48.80;;;;;;5095741;28;20778;-60
2021/03/08 01:46:18;;;;;;;7.50;4.97;;;21.10;48.80;;;;;;5095234;28;20032;-58
2021/03/08 01:48:44;;;;;;;10.57;6.07;;;21.20;48.80;;;;;;5095866;28;20141;-59
2021/03/08 01:51:10;;;;;;;15.18;5.20;;;21.10;48.80;;;;;;5096021;28;20114;-59
2021/03/08 01:53:37;;;;;;;10.63;5.13;;;21.10;48.70;;;;;;5095694;28;20157;-59
2021/03/08 01:56:04;;;;;;;8.57;4.85;;;21.10;48.70;;;;;;5094984;28;20462;-60
2021/03/08 01:58:31;;;;;;;12.82;5.25;;;21.10;48.60;;;;;;5094926;28;20024;-60
2021/03/08 02:00:57;;;;;;;6.80;4.93;;;21.10;48.60;;;;;;5095558;28;20039;-60
2021/03/08 02:03:24;;;;;;;11.75;4.80;;;21.10;48.70;;;;;;5084445;28;20031;-59
2021/03/08 02:05:50;;;;;;;11.80;4.43;;;21.10;48.70;;;;;;5095640;28;20062;-60
2021/03/08 02:08:22;;;;;;;9.80;5.03;;;21.10;48.70;;;;;;5095289;28;20032;-60
2021/03/08 02:10:49;;;;;;;11.52;5.70;;;21.10;48.70;;;;;;5077628;28;20043;-60
2021/03/08 02:13:15;;;;;;;9.77;4.57;;;21.00;48.70;;;;;;5077304;28;20085;-60
2021/03/08 02:16:13;;;;;;;7.85;4.72;;;21.00;48.70;;;;;;5077073;28;20450;-59
2021/03/08 02:19:05;;;;;;;17.00;4.72;;;21.00;48.60;;;;;;5092131;28;20432;-58
2021/03/08 02:21:52;;;;;;;17.90;4.85;;;21.10;48.60;;;;;;5050984;28;20047;-59
2021/03/08 02:24:40;;;;;;;7.97;4.47;;;21.00;48.40;;;;;;5074760;28;20036;-59
2021/03/08 02:27:37;;;;;;;10.32;4.57;;;21.00;49.10;;;;;;5056291;28;20473;-59
2021/03/08 02:30:06;;;;;;;7.82;4.85;;;21.00;48.50;;;;;;5049428;28;20041;-59
2021/03/08 02:32:39;;;;;;;9.15;4.30;;;21.00;48.60;;;;;;5074135;28;20897;-59
2021/03/08 02:35:08;;;;;;;8.38;4.80;;;21.00;48.40;;;;;;5073265;28;20035;-59
2021/03/08 02:37:46;;;;;;;9.30;4.53;;;21.00;48.50;;;;;;5035687;28;20430;-61
2021/03/08 02:40:16;;;;;;;7.95;4.43;;;21.00;48.50;;;;;;5069324;28;20043;-59
2021/03/08 02:42:47;;;;;;;9.63;5.30;;;21.00;48.50;;;;;;5056255;28;20033;-59
2021/03/08 02:45:15;;;;;;;9.43;4.55;;;20.90;48.40;;;;;;5074116;28;20027;-59
2021/03/08 02:47:46;;;;;;;11.32;4.97;;;20.90;48.40;;;;;;5073256;28;20016;-59
2021/03/08 02:50:14;;;;;;;6.60;4.45;;;21.00;48.50;;;;;;5054666;28;20056;-59
2021/03/08 02:52:52;;;;;;;7.28;4.75;;;21.00;48.50;;;;;;5054005;28;20078;-59
2021/03/08 02:55:19;;;;;;;8.55;4.20;;;20.90;48.50;;;;;;5056176;28;20033;-59
2021/03/08 02:57:47;;;;;;;8.57;4.90;;;21.00;48.60;;;;;;5074466;28;20386;-59
2021/03/08 03:00:14;;;;;;;9.45;4.28;;;21.00;48.50;;;;;;5055944;28;20470;-60
2021/03/08 03:02:42;;;;;;;9.00;4.20;;;20.90;48.40;;;;;;5039469;28;20531;-59
2021/03/08 03:05:13;;;;;;;7.80;4.05;;;20.90;48.50;;;;;;5073749;28;20060;-59
2021/03/08 03:07:43;;;;;;;;;;;20.90;48.50;;;;;;5056457;28;20029;-58
2021/03/08 03:10:10;;;;;;;7.95;4.00;;;20.90;48.80;;;;;;5039429;28;19908;-58
2021/03/08 03:12:37;;;;;;;10.82;5.28;;;21.00;48.50;;;;;;5073596;28;20115;-58
2021/03/08 03:15:06;;;;;;;9.93;4.13;;;21.00;48.30;;;;;;5036010;28;20083;-60
2021/03/08 03:17:35;;;;;;;7.53;4.32;;;20.90;48.20;;;;;;5071600;28;20027;-59
2021/03/08 03:20:04;;;;;;;6.45;4.22;;;20.90;48.30;;;;;;5054216;28;20060;-58
2021/03/08 03:22:32;;;;;;;7.40;4.10;;;20.90;48.40;;;;;;5073593;28;20367;-59
2021/03/08 03:25:00;;;;;;;11.30;5.00;;;20.90;48.40;;;;;;5073429;28;20387;-60
2021/03/08 03:27:28;;;;;;;7.55;4.53;;;20.90;48.30;;;;;;5055736;28;20063;-59
2021/03/08 03:29:55;;;;;;;7.38;4.30;;;20.90;48.30;;;;;;5072526;28;20056;-59
2021/03/08 03:32:22;;;;;;;10.65;4.20;;;20.80;48.20;;;;;;5073653;28;20020;-59
2021/03/08 03:34:50;;;;;;;7.32;3.75;;;20.80;48.30;;;;;;5073366;28;20059;-59
2021/03/08 03:37:21;;;;;;;7.32;3.78;;;20.80;48.30;;;;;;5035403;28;20478;-59
2021/03/08 03:39:48;;;;;;;7.68;4.40;;;20.80;48.30;;;;;;5051615;28;20062;-59
2021/03/08 03:42:18;;;;;;;10.20;4.50;;;20.80;48.30;;;;;;5055372;28;20078;-60
2021/03/08 03:44:45;;;;;;;8.10;4.32;;;20.80;48.30;;;;;;5071736;28;20028;-60
2021/03/08 03:47:12;;;;;;;9.52;4.80;;;20.80;48.30;;;;;;5082836;28;20024;-60
2021/03/08 03:49:38;;;;;;;9.57;4.32;;;20.80;48.30;;;;;;5053572;28;20103;-59
2021/03/08 03:52:05;;;;;;;7.40;4.20;;;20.70;48.30;;;;;;5055101;28;20029;-59
2021/03/08 03:54:32;;;;;;;10.40;4.13;;;20.70;48.30;;;;;;5055269;28;20025;-60
2021/03/08 03:57:02;;;;;;;10.32;4.15;;;20.70;48.40;;;;;;5072669;28;20066;-58
2021/03/08 03:59:33;;;;;;;;;;;20.70;48.20;;;;;;5054718;28;20040;-59
2021/03/08 04:02:05;;;;;;;11.00;4.00;;;20.70;48.60;;;;;;5072724;28;19927;-60
2021/03/08 04:04:54;;;;;;;10.13;4.28;;;20.80;48.30;;;;;;5071358;28;20150;-59
2021/03/08 04:07:21;;;;;;;10.82;4.22;;;20.70;48.30;;;;;;5069709;28;20040;-59
2021/03/08 04:09:50;;;;;;;13.32;4.95;;;20.70;48.30;;;;;;5088698;28;20408;-59
2021/03/08 04:12:24;;;;;;;8.15;4.30;;;20.70;48.20;;;;;;5054686;28;20183;-60
2021/03/08 04:14:53;;;;;;;12.23;4.78;;;20.70;48.30;;;;;;5038295;28;20040;-60
2021/03/08 04:17:20;;;;;;;6.68;5.03;;;20.70;48.30;;;;;;5037902;28;20062;-59
2021/03/08 04:19:48;;;;;;;9.63;4.70;;;20.70;48.30;;;;;;5072762;28;20132;-59
2021/03/08 04:22:15;;;;;;;8.00;4.30;;;20.60;48.30;;;;;;5072522;28;20048;-59
2021/03/08 04:24:43;;;;;;;9.02;4.80;;;20.70;48.50;;;;;;5072986;28;20086;-58
2021/03/08 04:27:13;;;;;;;8.10;3.95;;;20.60;48.20;;;;;;5072115;28;20039;-60
2021/03/08 04:29:41;;;;;;;6.90;4.18;;;20.60;48.30;;;;;;5054625;28;20028;-59
2021/03/08 04:32:09;;;;;;;9.10;5.03;;;20.60;48.30;;;;;;5054296;28;20051;-59
2021/03/08 04:34:36;;;;;;;8.45;5.63;;;20.60;48.20;;;;;;5077239;28;20060;-59
2021/03/08 04:37:04;;;;;;;12.52;5.15;;;20.60;48.10;;;;;;5051799;28;20034;-60
2021/03/08 04:39:34;;;;;;;6.63;4.72;;;20.60;48.10;;;;;;5061433;28;20469;-58
2021/03/08 04:42:01;;;;;;;11.20;4.60;;;20.60;48.10;;;;;;5071435;28;20040;-62
2021/03/08 04:44:28;;;;;;;11.82;5.05;;;20.60;48.10;;;;;;5070911;28;20467;-63
2021/03/08 04:46:55;;;;;;;10.98;5.03;;;20.60;48.10;;;;;;5080542;28;20359;-64
2021/03/08 04:49:21;;;;;;;12.63;4.78;;;20.50;48.20;;;;;;5072477;28;20021;-63
2021/03/08 04:51:48;;;;;;;8.32;4.80;;;20.50;48.20;;;;;;5055240;28;20746;-63
2021/03/08 04:54:17;;;;;;;11.25;5.03;;;20.50;48.30;;;;;;5053751;28;20028;-63
2021/03/08 04:56:44;;;;;;;8.27;4.97;;;20.50;48.20;;;;;;5054027;28;20037;-64
2021/03/08 04:59:11;;;;;;;8.90;4.65;;;20.50;48.30;;;;;;5037491;28;20051;-63
2021/03/08 05:01:39;;;;;;;7.35;4.10;;;20.50;48.20;;;;;;5072217;28;20024;-63
2021/03/08 05:04:08;;;;;;;11.85;4.93;;;20.50;48.30;;;;;;5072166;28;20459;-63
2021/03/08 05:06:41;;;;;;;8.95;4.75;;;20.50;48.20;;;;;;5054383;28;20070;-63
2021/03/08 05:09:10;;;;;;;6.80;4.22;;;20.50;48.20;;;;;;5072227;28;20470;-63
2021/03/08 05:11:37;;;;;;;12.05;5.00;;;20.50;48.20;;;;;;5091453;28;20078;-62
2021/03/08 05:14:08;;;;;;;11.40;5.13;;;20.50;48.20;;;;;;5075638;28;20032;-63
2021/03/08 05:16:39;;;;;;;10.15;4.90;;;20.40;48.10;;;;;;5075232;28;20021;-63
2021/03/08 05:19:06;;;;;;;13.98;4.68;;;20.50;48.20;;;;;;5075948;28;20032;-62
2021/03/08 05:21:34;;;;;;;10.27;4.63;;;20.40;48.10;;;;;;5075930;28;20564;-63
2021/03/08 05:24:00;;;;;;;9.90;4.40;;;20.40;48.20;;;;;;5075972;28;20029;-63
2021/03/08 05:26:27;;;;;;;9.52;4.47;;;20.40;48.10;;;;;;5075554;28;20017;-64
2021/03/08 05:28:55;;;;;;;7.82;4.65;;;20.50;48.10;;;;;;5058319;28;20024;-68
2021/03/08 05:31:23;;;;;;;9.10;4.80;;;20.50;48.10;;;;;;5058200;28;20028;-68
2021/03/08 05:33:55;;;;;;;10.50;4.90;;;20.40;48.10;;;;;;5074744;28;20100;-67
2021/03/08 05:36:21;;;;;;;9.95;4.40;;;20.40;48.00;;;;;;5071797;28;20116;-68
2021/03/08 05:38:49;;;;;;;10.00;4.30;;;20.40;48.00;;;;;;5038580;28;20021;-63
2021/03/08 05:41:30;;;;;;;7.80;4.18;;;20.40;47.90;;;;;;5084291;28;20055;-66
2021/03/08 05:44:02;;;;;;;10.05;3.83;;;20.40;47.90;;;;;;5080866;28;20425;-67
2021/03/08 05:46:53;;;;;;;8.70;4.30;;;20.40;48.00;;;;;;5056185;28;20086;-67
2021/03/08 05:49:51;;;;;;;6.35;3.40;;;20.40;47.90;;;;;;5071357;28;20324;-67
2021/03/08 05:52:26;;;;;;;7.38;4.07;;;20.40;48.10;;;;;;5054659;28;20131;-67
2021/03/08 05:54:55;;;;;;;9.63;4.70;;;20.50;48.10;;;;;;5066304;28;20024;-67
2021/03/08 05:57:40;;;;;;;13.82;4.50;;;20.40;48.00;;;;;;5039994;28;20499;-68
2021/03/08 06:00:40;;;;;;;10.90;4.93;;;20.40;48.00;;;;;;5057020;28;20123;-67
2021/03/08 06:03:12;;;;;;;8.77;4.70;;;20.40;48.00;;;;;;5074562;28;20045;-67
2021/03/08 06:06:05;;;;;;;8.07;4.07;;;20.40;47.90;;;;;;5056715;28;20029;-67
2021/03/08 06:09:21;;;;;;;11.30;4.28;;;20.40;48.00;;;;;;5074904;28;20471;-67
2021/03/08 06:11:58;;;;;;;9.70;4.28;;;20.40;48.10;;;;;;5069858;28;20045;-67
2021/03/08 06:14:32;;;;;;;10.73;4.00;;;20.40;47.90;;;;;;5055942;28;20040;-67
2021/03/08 06:17:00;;;;;;;10.15;5.25;;;20.30;47.90;;;;;;5074254;28;20036;-62
2021/03/08 06:19:26;;;;;;;10.20;5.10;;;20.40;48.00;;;;;;5074001;28;20338;-67
2021/03/08 06:21:53;;;;;;;11.40;4.65;;;20.40;48.00;;;;;;5056317;28;20094;-67
2021/03/08 06:24:21;;;;;;;9.65;5.43;;;20.40;48.10;;;;;;5056647;28;20028;-66
2021/03/08 06:26:49;;;;;;;10.10;5.97;;;20.30;48.00;;;;;;5075099;28;20056;-68
2021/03/08 06:29:18;;;;;;;11.65;4.97;;;20.30;48.00;;;;;;5057273;28;20028;-67
2021/03/08 06:31:44;;;;;;;10.80;5.18;;;20.30;48.00;;;;;;5082902;28;20025;-67
2021/03/08 06:34:10;;;;;;;7.47;5.45;;;20.30;48.00;;;;;;5063298;28;20036;-68
2021/03/08 06:36:37;;;;;;;11.65;5.45;;;20.30;48.00;;;;;;5056260;28;20028;-67
2021/03/08 06:39:04;;;;;;;9.98;4.82;;;20.30;48.00;;;;;;5074257;28;20082;-67
2021/03/08 06:41:33;;;;;;;10.65;4.90;;;20.30;47.90;;;;;;5053957;28;20043;-66
2021/03/08 06:44:01;;;;;;;7.82;4.38;;;20.30;47.90;;;;;;5073736;28;20024;-67
2021/03/08 06:46:28;;;;;;;10.38;5.72;;;20.30;47.90;;;;;;5056577;28;20025;-66
2021/03/08 06:48:54;;;;;;;7.53;4.88;;;20.30;47.80;;;;;;5056677;28;20039;-66
2021/03/08 06:51:20;;;;;;;9.35;4.60;;;20.30;47.80;;;;;;5074599;28;20040;-66
2021/03/08 06:53:47;;;;;;;9.50;4.90;;;20.30;47.90;;;;;;5056681;28;20149;-62
2021/03/08 06:56:26;;;;;;;9.95;4.85;;;20.30;47.90;;;;;;5074741;28;20052;-66
2021/03/08 06:59:08;;;;;;;10.02;4.13;;;20.30;47.90;;;;;;5040096;28;20029;-66
2021/03/08 07:01:39;;;;;;;10.70;4.88;;;20.20;47.90;;;;;;5074564;28;20058;-68
2021/03/08 07:04:14;;;;;;;7.75;5.05;;;20.20;47.90;;;;;;5065662;28;20461;-66
2021/03/08 07:06:40;;;;;;;13.38;5.22;;;20.20;47.90;;;;;;5061236;28;20024;-68
2021/03/08 07:09:11;;;;;;;12.23;5.50;;;20.20;48.00;;;;;;5073561;28;20168;-66
2021/03/08 07:11:37;;;;;;;;;;;20.20;47.90;;;;;;5094663;28;20031;-66
2021/03/08 07:14:17;;;;;;;11.20;4.78;;;20.20;48.20;;;;;;5089595;28;20069;-63
2021/03/08 07:16:43;;;;;;;12.13;5.28;;;20.20;47.90;;;;;;5081726;28;20119;-64
2021/03/08 07:19:10;;;;;;;7.05;4.57;;;20.20;47.90;;;;;;5073509;28;20425;-67
2021/03/08 07:21:37;;;;;;;11.50;5.03;;;20.20;48.00;;;;;;5072976;28;20409;-63
2021/03/08 07:24:15;;;;;;;11.68;5.40;;;20.20;48.00;;;;;;5055294;28;20183;-62
2021/03/08 07:26:53;;;;;;;11.07;5.38;;;20.20;48.00;;;;;;5073263;28;20032;-66
2021/03/08 07:29:20;;;;;;;11.88;5.75;;;20.20;48.00;;;;;;5073354;28;20032;-62
2021/03/08 07:31:51;;;;;;;14.90;5.95;;;20.20;48.10;;;;;;5073281;28;20036;-63
2021/03/08 07:34:17;;;;;;;;;;;20.20;48.00;;;;;;5055539;28;20032;-64
2021/03/08 07:36:56;;;;;;;15.07;7.13;;;20.20;48.30;;;;;;5073146;28;19915;-63
2021/03/08 07:39:22;;;;;;;17.50;8.02;;;20.30;47.90;;;;;;5073038;28;20025;-62
2021/03/08 07:42:05;;;;;;;14.65;10.00;;;20.30;47.90;;;;;;5088425;28;20036;-62
2021/03/08 07:44:31;;;;;;;19.40;12.13;;;20.20;47.80;;;;;;5088789;28;20059;-62
2021/03/08 07:46:59;;;;;;;16.80;11.48;;;20.20;47.90;;;;;;5073412;28;20027;-62
2021/03/08 07:49:36;;;;;;;19.98;14.23;;;20.20;47.90;;;;;;5055428;28;20072;-62
2021/03/08 07:52:08;;;;;;;21.23;13.68;;;20.20;47.90;;;;;;5055080;28;20061;-61
2021/03/08 07:55:00;;;;;;;22.27;13.98;;;20.20;48.00;;;;;;5054845;28;20127;-62
2021/03/08 07:57:28;;;;;;;19.75;14.32;;;20.20;48.00;;;;;;5078319;28;20488;-62
2021/03/08 07:59:55;;;;;;;25.20;16.63;;;20.20;48.00;;;;;;5074931;28;20020;-62
2021/03/08 08:02:22;;;;;;;28.65;17.35;;;20.20;48.10;;;;;;5092811;28;20039;-62
2021/03/08 08:04:48;;;;;;;29.58;17.33;;;20.20;48.10;;;;;;5074885;28;20043;-63
2021/03/08 08:07:17;;;;;;;20.45;13.45;;;20.20;48.10;;;;;;5075140;28;20120;-68
2021/03/08 08:09:46;;;;;;;23.60;14.05;;;20.20;48.20;;;;;;5074931;28;20032;-62
2021/03/08 08:12:14;;;;;;;17.85;12.95;;;20.20;48.10;;;;;;5093427;28;20477;-62
2021/03/08 08:14:42;;;;;;;22.52;13.20;;;20.30;48.20;;;;;;5093437;28;20420;-67
2021/03/08 08:17:16;;;;;;;18.00;12.20;;;20.30;48.20;;;;;;5093413;28;20056;-68
2021/03/08 08:19:46;;;;;;;21.23;12.48;;;20.30;48.20;;;;;;5093338;28;20039;-67
2021/03/08 08:22:25;;;;;;;20.08;11.95;;;20.30;48.20;;;;;;5075015;28;20427;-66
2021/03/08 08:24:56;;;;;;;19.05;11.95;;;20.30;48.20;;;;;;5093569;28;20408;-67
2021/03/08 08:27:24;;;;;;;19.50;11.07;;;20.30;48.20;;;;;;5075307;28;20028;-67
2021/03/08 08:29:50;;;;;;;19.10;10.27;;;20.30;48.20;;;;;;5093236;28;20473;-67
2021/03/08 08:32:17;;;;;;;17.50;10.00;;;20.30;48.20;;;;;;5093291;28;20115;-67
2021/03/08 08:34:45;;;;;;;15.80;9.63;;;20.40;48.20;;;;;;5074218;28;20027;-67
2021/03/08 08:37:17;;;;;;;16.25;8.73;;;20.40;48.20;;;;;;5074832;28;20125;-66
2021/03/08 08:39:44;;;;;;;11.93;8.63;;;20.40;48.20;;;;;;5074991;28;20066;-63
2021/03/08 08:42:17;;;;;;;14.25;8.70;;;20.50;48.20;;;;;;5057869;28;20089;-63
2021/03/08 08:44:45;;;;;;;11.23;7.35;;;20.50;48.10;;;;;;5057507;28;20165;-63
2021/03/08 08:47:21;;;;;;;14.82;7.80;;;20.50;48.10;;;;;;5074686;28;20123;-63
2021/03/08 08:49:48;;;;;;;11.50;7.75;;;20.50;48.00;;;;;;5092867;28;20028;-63
2021/03/08 08:52:16;;;;;;;13.57;7.85;;;20.60;48.10;;;;;;5092884;28;20077;-57
2021/03/08 08:54:52;;;;;;;13.25;7.50;;;20.70;48.10;;;;;;5074339;28;20024;-58
2021/03/08 08:57:21;;;;;;;47.72;38.83;;;20.60;48.00;;;;;;5092588;28;20101;-58
2021/03/08 09:00:13;;;;;;;41.35;31.48;;;20.70;48.10;;;;;;5092411;28;20020;-60
2021/03/08 09:02:39;;;;;;;36.97;26.40;;;20.70;48.00;;;;;;5072501;28;20039;-58
2021/03/08 09:05:27;;;;;;;31.60;22.80;;;20.80;48.00;;;;;;5073886;28;20028;-58
2021/03/08 09:08:18;;;;;;;28.55;18.77;;;20.80;48.00;;;;;;5091962;28;20519;-60
2021/03/08 09:10:44;;;;;;;20.38;15.02;;;20.80;47.90;;;;;;5068616;28;20169;-60
2021/03/08 09:13:11;;;;;;;20.58;14.52;;;20.90;47.90;;;;;;5070437;28;20043;-59
2021/03/08 09:15:37;;;;;;;22.50;13.82;;;20.80;47.90;;;;;;5072286;28;20033;-59
2021/03/08 09:18:04;;;;;;;16.63;10.98;;;20.80;47.90;;;;;;5071421;28;20021;-60
2021/03/08 09:20:32;;;;;;;15.85;10.43;;;20.80;47.90;;;;;;5072333;28;20170;-59
2021/03/08 09:23:03;;;;;;;15.80;9.05;;;20.80;47.90;;;;;;5072071;28;20043;-59
2021/03/08 09:25:31;;;;;;;15.15;10.23;;;20.90;48.10;;;;;;5087819;28;20048;-58
2021/03/08 09:28:08;;;;;;;13.98;9.27;;;20.90;48.10;;;;;;5072084;28;20408;-58
2021/03/08 09:30:46;;;;;;;14.18;8.73;;;20.90;48.10;;;;;;5072182;28;20039;-58
2021/03/08 09:33:17;;;;;;;14.13;7.57;;;20.90;48.20;;;;;;5072162;28;20024;-57
2021/03/08 09:35:47;;;;;;;14.75;6.97;;;21.00;48.30;;;;;;5072308;28;20451;-57
2021/03/08 09:38:21;;;;;;;15.18;7.05;;;21.00;48.40;;;;;;5061568;28;20473;-57
2021/03/08 09:40:49;;;;;;;14.30;8.02;;;21.00;48.70;;;;;;5092226;28;20366;-58
2021/03/08 09:43:23;;;;;;;15.98;6.80;;;21.10;48.50;;;;;;5091676;28;20059;-56
2021/03/08 09:45:57;;;;;;;22.80;6.55;;;21.10;48.40;;;;;;5092224;28;20101;-59
2021/03/08 09:48:23;;;;;;;46.28;31.13;;;21.10;48.40;;;;;;5070179;28;20029;-59
2021/03/08 09:50:49;;;;;;;92.90;58.22;;;21.20;48.40;;;;;;5071884;28;20020;-58
2021/03/08 09:53:15;;;;;;;53.72;32.60;;;21.20;48.50;;;;;;5072059;28;20025;-60
2021/03/08 09:55:42;;;;;;;28.60;15.63;;;21.40;48.40;;;;;;5072088;28;20107;-59
2021/03/08 09:58:16;;;;;;;33.17;20.25;;;21.70;48.00;;;;;;5056520;28;20032;-57
2021/03/08 10:00:44;;;;;;;35.90;24.65;;;22.20;47.40;;;;;;5057432;28;20032;-58
2021/03/08 10:03:11;;;;;;;44.53;30.33;;;22.60;46.50;;;;;;5083364;28;20031;-58
2021/03/08 10:05:53;;;;;;;47.45;31.73;;;22.90;45.90;;;;;;5095697;28;20465;-58
2021/03/08 10:08:21;;;;;;;43.00;30.33;;;23.10;45.50;;;;;;5077596;28;20465;-58
2021/03/08 10:10:52;;;;;;;25.55;17.35;;;23.40;45.50;;;;;;5095621;28;20374;-58
2021/03/08 10:13:20;;;;;;;23.65;13.63;;;23.60;44.70;;;;;;5095627;28;20093;-58
2021/03/08 10:15:49;;;;;;;21.73;11.52;;;23.90;44.40;;;;;;5077491;28;20059;-58
2021/03/08 10:18:18;;;;;;;18.30;11.63;;;24.10;43.90;;;;;;5095501;28;20028;-58
2021/03/08 10:20:56;;;;;;;16.60;12.05;;;24.30;43.30;;;;;;5095370;28;20036;-58
2021/03/08 10:23:28;;;;;;;17.75;9.00;;;24.60;42.70;;;;;;5095175;28;20064;-58
2021/03/08 10:26:16;;;;;;;14.27;6.55;;;24.80;42.20;;;;;;5095100;28;20020;-58
2021/03/08 10:28:42;;;;;;;11.52;6.15;;;25.10;41.80;;;;;;5094770;28;20481;-58
2021/03/08 10:31:25;;;;;;;13.55;6.10;;;25.30;41.50;;;;;;5093981;28;20055;-58
2021/03/08 10:33:53;;;;;;;11.25;6.25;;;25.50;40.80;;;;;;5076562;28;20141;-58
2021/03/08 10:36:21;;;;;;;10.98;5.72;;;25.70;40.30;;;;;;5094979;28;20109;-58
2021/03/08 10:39:03;;;;;;;15.15;6.10;;;25.80;39.60;;;;;;5072090;28;20035;-58
2021/03/08 10:41:30;;;;;;;15.98;6.28;;;25.80;39.10;;;;;;5074702;28;20047;-58
2021/03/08 10:43:58;;;;;;;22.17;5.65;;;25.90;39.10;;;;;;5074716;28;20086;-58
2021/03/08 10:46:34;;;;;;;11.25;4.70;;;25.90;38.60;;;;;;5090239;28;20028;-59
2021/03/08 10:49:09;;;;;;;11.68;5.20;;;25.80;38.30;;;;;;5074460;28;20070;-59
2021/03/08 10:51:37;;;;;;;10.55;5.15;;;25.80;38.10;;;;;;5089191;28;20036;-59
2021/03/08 10:54:13;;;;;;;14.27;5.63;;;25.80;38.20;;;;;;5063187;28;20426;-58
2021/03/08 10:56:42;;;;;;;10.55;5.22;;;25.70;38.10;;;;;;5089940;28;20067;-58
2021/03/08 10:59:26;;;;;;;12.70;5.70;;;25.70;38.00;;;;;;5100642;28;20485;-59
2021/03/08 11:02:07;;;;;;;15.48;4.72;;;25.50;38.10;;;;;;5094365;28;20077;-59
2021/03/08 11:04:34;;;;;;;11.13;6.05;;;25.40;37.80;;;;;;5094451;28;20115;-59
2021/03/08 11:07:00;;;;;;;13.55;5.75;;;25.40;38.00;;;;;;5094538;28;20433;-59
2021/03/08 11:09:31;;;;;;;11.77;4.40;;;25.40;37.50;;;;;;5076027;28;20027;-59
2021/03/08 11:11:58;;;;;;;13.15;5.80;;;25.40;37.40;;;;;;5094481;28;20474;-58
2021/03/08 11:14:25;;;;;;;11.18;4.88;;;25.40;37.60;;;;;;5094131;28;20035;-58
2021/03/08 11:16:56;;;;;;;14.05;4.90;;;25.50;37.20;;;;;;5094376;28;20028;-58
2021/03/08 11:19:29;;;;;;;162.32;145.20;;;25.60;36.70;;;;;;5076149;28;20056;-57
2021/03/08 11:22:05;;;;;;;39.60;29.02;;;25.60;36.60;;;;;;5093710;28;20047;-58
2021/03/08 11:24:39;;;;;;;20.30;9.23;;;25.50;37.10;;;;;;5096579;28;20032;-56
2021/03/08 11:27:27;;;;;;;8.25;4.82;;;25.50;37.00;;;;;;5079387;28;20024;-56
2021/03/08 11:29:56;;;;;;;13.43;5.57;;;25.60;37.30;;;;;;5086283;28;20020;-56
2021/03/08 11:32:24;;;;;;;16.08;5.30;;;25.70;37.30;;;;;;5103700;28;20024;-58
2021/03/08 11:34:52;;;;;;;15.25;5.70;;;25.90;37.40;;;;;;5081265;28;20487;-57
2021/03/08 11:37:20;;;;;;;15.60;5.93;;;26.10;37.30;;;;;;5103857;28;20030;-57
2021/03/08 11:39:51;;;;;;;11.55;4.95;;;26.40;36.60;;;;;;5066992;28;20382;-58
2021/03/08 11:42:21;;;;;;;13.50;4.93;;;26.70;36.00;;;;;;5102787;28;20024;-57
2021/03/08 11:44:47;;;;;;;11.40;4.70;;;26.90;35.70;;;;;;5075274;28;20038;-56
2021/03/08 11:47:15;;;;;;;13.05;4.70;;;27.10;34.80;;;;;;5093427;28;20038;-56
2021/03/08 11:49:42;;;;;;;13.68;4.40;;;27.20;35.10;;;;;;5092363;28;20012;-59
2021/03/08 11:52:09;;;;;;;20.85;6.68;;;27.40;34.60;;;;;;5090536;28;20107;-58
2021/03/08 11:54:35;;;;;;;11.98;5.50;;;27.50;34.90;;;;;;5093231;28;20026;-56
2021/03/08 11:57:02;;;;;;;12.32;4.68;;;27.60;36.90;;;;;;5096507;28;20028;-56
2021/03/08 11:59:29;;;;;;;19.45;11.75;;;27.70;37.50;;;;;;5103965;28;20126;-58
2021/03/08 12:01:55;;;;;;;20.02;13.05;;;27.80;37.90;;;;;;5099715;28;20026;-57
2021/03/08 12:04:21;;;;;;;16.75;9.55;;;28.00;37.70;;;;;;5118098;27;20047;-56
2021/03/08 12:06:47;;;;;;;12.70;8.98;;;28.10;37.40;;;;;;5102379;28;20063;-57
2021/03/08 12:09:14;;;;;;;21.88;15.90;;;28.30;36.90;;;;;;5102163;28;20022;-56
2021/03/08 12:11:40;;;;;;;31.20;19.13;;;28.60;36.00;;;;;;5103707;28;20068;-55
2021/03/08 12:14:07;;;;;;;28.33;17.83;;;28.90;35.60;;;;;;5083695;28;20044;-56
2021/03/08 12:16:34;;;;;;;24.15;15.90;;;29.10;35.20;;;;;;5102579;28;20043;-58
2021/03/08 12:19:00;;;;;;;23.10;13.68;;;29.30;35.00;;;;;;5103311;28;20034;-59
2021/03/08 12:21:27;;;;;;;22.55;13.05;;;29.60;34.90;;;;;;5080384;28;20059;-56
2021/03/08 12:23:53;;;;;;;16.42;10.52;;;29.80;34.80;;;;;;5102426;28;20453;-58
2021/03/08 12:26:20;;;;;;;16.77;10.50;;;30.00;34.50;;;;;;5102268;28;20105;-59
2021/03/08 12:28:46;;;;;;;17.90;10.23;;;30.10;34.30;;;;;;5082345;28;20042;-56
2021/03/08 12:31:13;;;;;;;28.98;10.30;;;30.30;34.30;;;;;;5095358;28;20017;-56
2021/03/08 12:33:39;;;;;;;18.15;9.32;;;30.40;34.00;;;;;;5092782;28;20078;-56
2021/03/08 12:36:07;;;;;;;17.60;8.23;;;30.50;33.70;;;;;;5092853;28;20024;-56
2021/03/08 12:38:34;;;;;;;18.58;8.98;;;30.50;33.50;;;;;;5092519;28;20082;-56
2021/03/08 12:41:03;;;;;;;26.30;11.23;;;30.50;33.40;;;;;;5092634;28;20099;-58
2021/03/08 12:43:29;;;;;;;23.40;11.67;;;30.50;33.20;;;;;;5092677;28;20497;-56
2021/03/08 12:45:55;;;;;;;19.60;10.85;;;30.50;33.50;;;;;;5081364;28;20067;-57
2021/03/08 12:48:21;;;;;;;23.10;10.63;;;30.40;33.30;;;;;;5072139;28;20040;-57
2021/03/08 12:50:48;;;;;;;20.95;10.05;;;30.40;33.30;;;;;;5072242;28;20555;-56
2021/03/08 12:53:14;;;;;;;21.77;9.85;;;30.40;33.20;;;;;;5072228;28;20425;-56